Time;durP1;ratioP1;P1;durP2;ratioP2;P2;SDS_P1;SDS_P2;PMS_P1;PMS_P2;Temp;Humidity;BMP_temperature;BMP_pressure;BME280_temperature;BME280_humidity;BME280_pressure;Samples;Min_cycle;Max_cycle;Signal;HPM_P1;HPM_P2
2022/09/06 07:11:15;;;;;;;13.15;11.30;;;30.50;99.90;;;;;;5010474;23;20064;-92
2022/09/06 07:13:42;;;;;;;12.27;11.05;;;30.90;99.90;;;;;;4864035;29;20112;-93
2022/09/06 07:16:21;;;;;;;13.52;12.32;;;31.20;99.90;;;;;;4849711;29;20060;-91
2022/09/06 07:18:51;;;;;;;13.85;12.02;;;31.50;99.90;;;;;;4851413;29;20458;-92
2022/09/06 07:21:25;;;;;;;13.15;11.95;;;31.60;99.90;;;;;;4849697;29;20040;-91
2022/09/06 07:23:53;;;;;;;14.90;13.52;;;31.70;99.90;;;;;;4849019;29;20029;-93
2022/09/06 07:26:23;;;;;;;13.75;12.55;;;31.50;99.90;;;;;;4849015;29;20029;-93
2022/09/06 07:29:07;;;;;;;15.00;13.50;;;31.00;99.90;;;;;;4849227;29;20063;-93
2022/09/06 07:31:37;;;;;;;15.50;14.25;;;30.60;99.90;;;;;;4849305;29;20479;-93
2022/09/06 07:34:07;;;;;;;16.27;14.77;;;30.40;99.90;;;;;;4849509;29;20440;-93
2022/09/06 07:36:57;;;;;;;15.18;13.68;;;30.40;99.90;;;;;;4849305;29;20498;-94
2022/09/06 07:39:23;;;;;;;14.80;13.40;;;30.20;99.90;;;;;;4848555;29;20053;-90
2022/09/06 07:41:53;;;;;;;16.90;14.95;;;30.30;99.90;;;;;;4849240;29;20033;-92
2022/09/06 07:44:34;;;;;;;15.75;14.35;;;29.90;99.90;;;;;;4849201;29;20036;-94
2022/09/06 07:47:06;;;;;;;16.70;15.20;;;30.10;99.90;;;;;;4849810;29;20025;-93
2022/09/06 07:49:36;;;;;;;15.50;14.15;;;30.10;99.90;;;;;;4849458;29;20506;-92
2022/09/06 07:52:12;;;;;;;16.38;14.88;;;29.80;99.90;;;;;;4849844;29;20033;-92
2022/09/06 07:54:59;;;;;;;15.27;13.98;;;29.70;99.90;;;;;;4849054;29;20028;-93
2022/09/06 08:01:36;;;;;;;13.68;12.48;;;29.80;99.90;;;;;;4942733;23;20063;-92
2022/09/06 08:04:17;;;;;;;15.70;14.40;;;30.10;99.90;;;;;;4886390;29;20474;-93
2022/09/06 08:06:56;;;;;;;17.15;15.68;;;30.20;99.90;;;;;;4887063;29;20047;-92
2022/09/06 08:09:22;;;;;;;17.17;15.70;;;30.20;99.90;;;;;;4885837;29;20509;-92
2022/09/06 08:11:49;;;;;;;16.30;15.10;;;30.50;99.90;;;;;;4886293;29;20032;-92
2022/09/06 08:14:16;;;;;;;16.33;14.85;;;30.40;99.90;;;;;;4886397;29;20370;-93
2022/09/06 08:16:43;;;;;;;16.50;14.48;;;30.60;99.90;;;;;;4885901;29;20039;-93
2022/09/06 08:19:13;;;;;;;15.95;14.48;;;30.70;99.90;;;;;;4885691;29;20485;-93
2022/09/06 08:21:39;;;;;;;16.95;15.40;;;30.70;99.90;;;;;;4886280;29;20032;-94
2022/09/06 08:24:10;;;;;;;17.05;15.75;;;31.00;99.90;;;;;;4886269;29;20038;-93
2022/09/06 08:26:41;;;;;;;16.95;15.25;;;31.50;99.90;;;;;;4889650;29;20028;-93
2022/09/06 08:29:08;;;;;;;19.25;16.45;;;31.80;99.90;;;;;;4889273;29;20036;-92
2022/09/06 08:31:38;;;;;;;19.08;17.63;;;31.90;99.90;;;;;;4888985;29;20032;-93
2022/09/06 08:34:06;;;;;;;18.88;17.02;;;31.50;99.90;;;;;;4887762;29;20025;-93
2022/09/06 08:36:33;;;;;;;18.70;17.10;;;31.20;99.90;;;;;;4885788;29;20035;-94
2022/09/06 08:39:02;;;;;;;17.50;16.20;;;30.60;99.90;;;;;;4884445;29;20053;-93
2022/09/06 08:41:45;;;;;;;17.35;15.88;;;30.50;99.90;;;;;;4875565;29;20048;-92
2022/09/06 08:44:43;;;;;;;16.63;15.30;;;30.50;99.90;;;;;;4901836;29;20486;-91
2022/09/06 08:47:12;;;;;;;17.35;15.95;;;30.10;99.90;;;;;;4880261;29;20068;-92
2022/09/06 08:50:06;;;;;;;16.95;15.30;;;30.00;99.90;;;;;;4885725;29;20028;-92
2022/09/06 08:52:57;;;;;;;16.95;15.75;;;30.10;99.90;;;;;;4883153;29;20367;-91
2022/09/06 08:55:46;;;;;;;17.15;15.85;;;30.10;99.90;;;;;;4870146;29;20039;-92
2022/09/06 08:58:52;;;;;;;17.30;15.80;;;30.50;99.90;;;;;;4883211;29;20123;-93
2022/09/06 09:01:26;;;;;;;18.40;16.98;;;30.50;99.90;;;;;;4885934;29;20048;-92
2022/09/06 09:04:07;;;;;;;18.05;16.75;;;30.50;99.90;;;;;;4875133;29;20037;-92
2022/09/06 09:06:35;;;;;;;17.70;16.15;;;30.90;99.90;;;;;;4885661;29;20029;-93
2022/09/06 09:09:12;;;;;;;17.83;16.33;;;30.90;99.90;;;;;;4885528;29;20036;-92
2022/09/06 09:11:43;;;;;;;18.05;16.40;;;31.20;99.90;;;;;;4886481;29;20053;-92
2022/09/06 09:14:34;;;;;;;18.80;17.23;;;31.30;99.90;;;;;;4886124;29;20032;-92
2022/09/06 09:17:20;;;;;;;19.05;17.35;;;31.30;99.90;;;;;;4871063;29;20083;-91
2022/09/06 09:19:47;;;;;;;18.60;17.25;;;30.90;99.90;;;;;;4887233;29;20131;-91
2022/09/06 09:22:18;;;;;;;19.20;17.48;;;30.70;99.90;;;;;;4883539;29;20024;-95
2022/09/06 09:24:46;;;;;;;18.13;16.80;;;30.70;99.90;;;;;;4885939;29;20028;-93
2022/09/06 09:27:35;;;;;;;17.42;16.15;;;30.70;99.90;;;;;;4880064;29;20031;-93
2022/09/06 09:30:05;;;;;;;18.20;16.73;;;30.50;99.90;;;;;;4896001;29;20028;-94
2022/09/06 09:32:38;;;;;;;18.40;16.90;;;30.40;99.90;;;;;;4876323;29;20123;-92
2022/09/06 09:35:35;;;;;;;19.60;17.77;;;30.30;99.90;;;;;;4890095;29;20032;-91
2022/09/06 09:38:12;;;;;;;18.95;17.45;;;30.10;99.90;;;;;;4870093;29;20032;-91
2022/09/06 09:40:49;;;;;;;19.38;17.92;;;30.20;99.90;;;;;;4869554;29;20054;-92
2022/09/06 09:43:23;;;;;;;18.90;17.40;;;30.30;99.90;;;;;;4883528;29;20029;-94
2022/09/06 09:46:28;;;;;;;17.88;16.40;;;30.20;99.90;;;;;;4885370;29;20036;-94
2022/09/06 09:49:07;;;;;;;19.00;17.60;;;30.20;99.90;;;;;;4886139;29;20039;-92
2022/09/06 09:51:49;;;;;;;18.95;17.50;;;30.60;99.90;;;;;;4884843;29;20040;-93
2022/09/06 09:54:30;;;;;;;19.40;17.85;;;30.90;99.90;;;;;;4884815;29;20508;-92
2022/09/06 09:56:58;;;;;;;19.15;17.65;;;30.30;99.90;;;;;;4885829;29;20096;-93
2022/09/06 10:03:21;;;;;;;19.92;17.98;;;30.80;99.90;;;;;;4826304;29;20137;-93
2022/09/06 10:05:59;;;;;;;18.20;16.83;;;30.80;99.90;;;;;;4825266;29;20484;-91
2022/09/06 10:08:29;;;;;;;19.17;17.63;;;29.90;99.90;;;;;;4825360;29;20039;-92
2022/09/06 10:10:56;;;;;;;19.27;17.75;;;29.90;99.90;;;;;;4825778;29;20057;-92
2022/09/06 10:13:31;;;;;;;19.58;17.88;;;30.30;99.90;;;;;;4825567;29;20046;-93
2022/09/06 10:16:02;;;;;;;18.42;17.10;;;30.30;99.90;;;;;;4825650;29;20416;-93
2022/09/06 10:18:51;;;;;;;21.13;19.52;;;30.80;99.90;;;;;;4825677;29;20066;-94
2022/09/06 10:21:22;;;;;;;20.00;18.25;;;31.20;99.90;;;;;;4825602;29;20041;-93
2022/09/06 10:24:21;;;;;;;18.13;16.70;;;31.00;99.90;;;;;;4825690;29;20575;-93
2022/09/06 10:27:01;;;;;;;18.75;17.45;;;30.30;99.90;;;;;;4806802;29;20046;-94
2022/09/06 10:29:51;;;;;;;18.50;17.02;;;30.40;99.90;;;;;;4845957;29;20045;-93
2022/09/06 10:32:37;;;;;;;17.85;16.58;;;30.70;99.90;;;;;;4846446;29;20049;-93
2022/09/06 10:35:30;;;;;;;18.77;17.15;;;30.70;99.90;;;;;;4846735;29;20212;-92
2022/09/06 10:38:12;;;;;;;19.38;16.98;;;30.20;99.90;;;;;;4846828;29;20030;-92
2022/09/06 10:41:28;;;;;;;19.60;17.02;;;30.50;99.90;;;;;;4846536;29;20535;-93
2022/09/06 10:44:18;;;;;;;18.92;17.17;;;30.60;99.90;;;;;;4780350;29;20045;-94
2022/09/06 10:46:54;;;;;;;19.55;17.67;;;30.30;99.90;;;;;;4847078;29;20048;-92
2022/09/06 10:49:20;;;;;;;19.25;17.63;;;30.30;99.90;;;;;;4846061;29;20074;-91
2022/09/06 10:52:01;;;;;;;18.27;16.70;;;30.20;99.90;;;;;;4848389;29;20045;-93
2022/09/06 10:54:32;;;;;;;18.98;17.27;;;29.90;99.90;;;;;;4846107;29;20044;-93
2022/09/06 10:57:20;;;;;;;18.05;16.63;;;30.10;99.90;;;;;;4855141;29;20144;-94
2022/09/06 10:59:53;;;;;;;18.13;16.50;;;30.00;99.90;;;;;;4872152;29;20040;-92
2022/09/06 11:02:41;;;;;;;18.65;17.10;;;30.10;99.90;;;;;;4884884;29;20060;-93
2022/09/06 11:05:12;;;;;;;17.45;16.02;;;30.20;99.90;;;;;;4880209;29;20088;-92
2022/09/06 11:07:46;;;;;;;18.17;16.58;;;30.10;99.90;;;;;;4891994;29;20089;-92
2022/09/06 11:45:47;;;;;;;16.85;15.35;;;29.50;99.90;;;;;;836616;23;20410;-91
2022/09/06 11:48:33;;;;;;;;;;;;;;;;;;;;;
2022/09/06 11:51:05;;;;;;;18.00;16.23;;;29.80;99.90;;;;;;4863699;29;20048;-92
2022/09/06 11:53:58;;;;;;;17.55;16.15;;;29.90;99.90;;;;;;4847907;29;20025;-93
2022/09/06 11:56:41;;;;;;;18.13;16.80;;;30.00;99.90;;;;;;4831466;29;20101;-93
2022/09/06 11:59:23;;;;;;;17.55;15.88;;;29.90;99.90;;;;;;4831863;29;20069;-94
2022/09/06 12:02:01;;;;;;;16.88;15.57;;;29.70;99.90;;;;;;4866704;29;20040;-93
2022/09/06 12:05:06;;;;;;;16.65;15.45;;;29.30;99.90;;;;;;4852140;29;20106;-92
2022/09/06 12:08:13;;;;;;;17.02;15.55;;;29.40;99.90;;;;;;5144684;23;20212;-95
2022/09/06 12:11:17;;;;;;;15.88;14.70;;;29.60;99.90;;;;;;5110803;23;20090;-93
2022/09/06 12:14:47;;;;;;;17.30;15.90;;;29.90;99.90;;;;;;4893272;29;20044;-92
2022/09/06 12:23:36;;;;;;;15.82;14.52;;;29.80;99.90;;;;;;4865430;29;20039;-94
2022/09/06 12:26:10;;;;;;;16.30;14.90;;;29.60;99.90;;;;;;4894633;29;20039;-92
2022/09/06 12:28:52;;;;;;;16.73;15.52;;;29.30;99.90;;;;;;4891502;29;20199;-93
2022/09/06 12:31:44;;;;;;;17.38;15.88;;;29.40;99.90;;;;;;4892112;29;20044;-93
2022/09/06 12:38:19;;;;;;;17.10;15.73;;;29.40;99.90;;;;;;5149665;23;20068;-94
2022/09/06 12:41:12;;;;;;;17.38;16.05;;;29.40;99.90;;;;;;4895825;29;20040;-94
2022/09/06 12:43:56;;;;;;;;;;;;;;;;;;;;;
2022/09/06 12:46:38;;;;;;;16.88;15.57;;;29.50;99.90;;;;;;4896254;29;20042;-93
2022/09/06 12:49:29;;;;;;;16.80;15.48;;;29.60;99.90;;;;;;4898589;29;20064;-93
2022/09/06 12:52:22;;;;;;;16.95;15.55;;;29.50;99.90;;;;;;4890873;29;20029;-92
2022/09/06 12:54:56;;;;;;;16.42;15.02;;;29.10;99.90;;;;;;4877253;29;20473;-93
2022/09/06 12:57:37;;;;;;;;;;;;;;;;;;;;;
2022/09/06 13:00:15;;;;;;;19.15;17.30;;;29.20;99.90;;;;;;4909385;29;20140;-93
2022/09/06 13:02:53;;;;;;;17.65;16.25;;;29.40;99.90;;;;;;4892829;29;20036;-93
2022/09/06 13:05:46;;;;;;;18.65;17.25;;;29.70;99.90;;;;;;4897381;29;20036;-94
2022/09/06 13:08:33;;;;;;;19.55;17.85;;;29.80;99.90;;;;;;4890253;29;20049;-94
2022/09/06 13:11:03;;;;;;;17.55;16.25;;;29.60;99.90;;;;;;4892428;29;20051;-92
2022/09/06 13:13:32;;;;;;;18.67;17.27;;;29.60;99.90;;;;;;4871125;29;20032;-93
2022/09/06 13:15:58;;;;;;;17.25;15.88;;;29.50;99.90;;;;;;4886008;29;20032;-92
2022/09/06 13:18:35;;;;;;;18.20;16.70;;;29.40;99.90;;;;;;4871043;29;20111;-92
2022/09/06 13:21:03;;;;;;;17.60;16.25;;;29.50;99.90;;;;;;4889531;29;20040;-93
2022/09/06 13:24:17;;;;;;;18.48;16.90;;;29.30;99.90;;;;;;4869690;29;20029;-92
2022/09/06 13:27:20;;;;;;;19.65;17.70;;;29.20;99.90;;;;;;4885965;29;20033;-94
2022/09/06 13:30:07;;;;;;;18.08;16.50;;;29.30;99.90;;;;;;4871148;29;20459;-93
2022/09/06 13:32:44;;;;;;;17.77;16.27;;;29.50;99.90;;;;;;4885042;29;20443;-93
2022/09/06 13:35:25;;;;;;;17.77;16.42;;;29.50;99.90;;;;;;4884969;29;20039;-93
2022/09/06 13:37:52;;;;;;;18.02;16.55;;;29.30;99.90;;;;;;4870645;29;20148;-92
2022/09/06 13:40:53;;;;;;;19.05;17.35;;;29.20;99.90;;;;;;4873034;29;20068;-93
2022/09/06 13:43:27;;;;;;;19.55;17.85;;;29.20;99.90;;;;;;4879464;29;20040;-94
2022/09/06 13:46:26;;;;;;;18.67;17.10;;;29.20;99.90;;;;;;4893874;29;20040;-93
2022/09/06 13:48:56;;;;;;;19.25;17.52;;;29.30;99.90;;;;;;4888959;29;20067;-92
2022/09/06 13:51:45;;;;;;;17.63;16.30;;;29.30;99.90;;;;;;4893369;29;20033;-93
2022/09/06 13:54:14;;;;;;;17.92;16.52;;;29.30;99.90;;;;;;4888380;29;20040;-93
2022/09/06 13:56:53;;;;;;;18.17;16.55;;;29.30;99.90;;;;;;4877511;29;20504;-93
2022/09/06 13:59:23;;;;;;;17.75;16.10;;;29.30;99.90;;;;;;4890702;29;20068;-93
2022/09/06 14:02:04;;;;;;;17.35;15.88;;;29.20;99.90;;;;;;4874689;29;20084;-93
2022/09/06 14:42:23;;;;;;;19.30;17.67;;;28.80;99.90;;;;;;4845307;29;20499;-89
2022/09/06 14:44:52;;;;;;;17.58;16.05;;;28.90;99.90;;;;;;4847248;29;20165;-91
2022/09/06 14:47:19;;;;;;;17.25;15.80;;;28.70;99.90;;;;;;4846939;29;20034;-93
2022/09/06 14:49:45;;;;;;;17.30;15.93;;;28.60;99.90;;;;;;4850722;29;20037;-94
2022/09/06 14:52:12;;;;;;;16.33;14.90;;;28.60;99.90;;;;;;4852117;29;20060;-93
2022/09/06 14:54:41;;;;;;;17.33;15.93;;;28.60;99.90;;;;;;4841646;29;20065;-92
2022/09/06 14:57:10;;;;;;;17.38;15.80;;;28.50;99.90;;;;;;4841148;29;20033;-93
2022/09/06 15:00:10;;;;;;;18.75;17.15;;;28.50;99.90;;;;;;4836829;29;20042;-93
2022/09/06 15:11:33;;;;;;;23.13;18.35;;;28.10;99.90;;;;;;4881100;29;20091;-94
2022/09/06 15:25:15;;;;;;;19.20;17.50;;;28.10;99.90;;;;;;5076258;23;20345;-93
2022/09/06 15:31:04;;;;;;;19.40;17.58;;;28.00;99.90;;;;;;4932205;23;20085;-93
2022/09/06 15:47:22;;;;;;;19.83;18.02;;;28.00;99.90;;;;;;5493860;23;21038;-94
2022/09/06 16:01:44;;;;;;;20.10;18.27;;;27.80;99.90;;;;;;5085900;23;20052;-92
2022/09/06 16:04:11;;;;;;;19.58;17.90;;;27.80;99.90;;;;;;4867659;29;20029;-92
2022/09/06 16:06:41;;;;;;;20.05;18.15;;;27.70;99.90;;;;;;4883723;29;20056;-91
2022/09/06 16:09:10;;;;;;;20.90;18.90;;;27.50;99.90;;;;;;4885549;29;20033;-92
2022/09/06 16:11:38;;;;;;;19.83;18.05;;;27.40;99.90;;;;;;4868469;29;20025;-92
2022/09/06 16:25:13;;;;;;;18.88;17.13;;;27.30;99.90;;;;;;4885756;29;20061;-92
2022/09/06 16:39:03;;;;;;;26.30;19.45;;;26.90;99.90;;;;;;5102031;23;20056;-94
2022/09/06 16:42:02;;;;;;;20.75;18.75;;;26.80;99.90;;;;;;4875283;29;20450;-93
2022/09/06 16:44:57;;;;;;;20.42;18.42;;;26.70;99.90;;;;;;4952938;23;20070;-94
2022/09/06 16:47:49;;;;;;;22.00;19.65;;;26.70;99.90;;;;;;4902087;23;20596;-94
2022/09/06 16:50:43;;;;;;;21.38;19.17;;;26.70;99.90;;;;;;4908897;23;20082;-94
2022/09/06 20:52:33;;;;;;;22.75;16.70;;;23.00;99.90;;;;;;5742670;23;20053;-93
2022/09/06 20:55:00;;;;;;;23.08;16.77;;;23.10;99.90;;;;;;4855447;29;20422;-92
2022/09/06 20:57:27;;;;;;;23.50;16.67;;;23.00;99.90;;;;;;4870307;29;20027;-93
2022/09/06 20:59:53;;;;;;;21.85;16.20;;;23.00;99.90;;;;;;4885883;29;20044;-93
2022/09/06 21:02:20;;;;;;;22.02;16.58;;;22.90;99.90;;;;;;4870014;29;20028;-93
2022/09/06 21:04:47;;;;;;;21.67;15.60;;;22.90;99.90;;;;;;4887379;29;20044;-93
2022/09/06 21:07:13;;;;;;;24.88;16.27;;;22.90;99.90;;;;;;4883737;29;20438;-92
2022/09/06 21:09:40;;;;;;;21.25;16.52;;;22.80;99.90;;;;;;4872588;29;20024;-93
2022/09/06 21:12:07;;;;;;;24.92;16.80;;;22.80;99.90;;;;;;4870534;29;20056;-93
2022/09/06 21:14:46;;;;;;;;;;;;;;;;;;;;;
2022/09/06 21:17:29;;;;;;;23.17;17.55;;;22.90;99.90;;;;;;4885648;29;20036;-93
2022/09/06 21:19:56;;;;;;;27.15;17.15;;;22.80;99.90;;;;;;4870677;29;20036;-93
2022/09/06 21:23:05;;;;;;;21.08;16.13;;;22.80;99.90;;;;;;4869969;29;20029;-93
2022/09/06 21:25:42;;;;;;;;;;;;;;;;;;;;;
2022/09/06 21:28:38;;;;;;;23.90;17.52;;;22.90;99.90;;;;;;4901962;29;20093;-93
2022/09/06 21:31:11;;;;;;;19.45;14.90;;;22.90;99.90;;;;;;4884678;29;20044;-94
2022/09/06 21:33:47;;;;;;;26.65;19.40;;;22.80;99.90;;;;;;4885171;29;20044;-92
2022/09/06 21:36:28;;;;;;;21.15;16.35;;;22.80;99.90;;;;;;4869606;29;20039;-93
2022/09/06 21:38:58;;;;;;;19.80;15.05;;;22.70;99.90;;;;;;4870582;29;20036;-94
2022/09/06 21:41:33;;;;;;;19.52;15.77;;;22.80;99.90;;;;;;4870472;29;20041;-94
2022/09/06 21:44:07;;;;;;;20.20;14.63;;;22.80;99.90;;;;;;4870921;29;20036;-93
2022/09/06 21:46:36;;;;;;;18.88;13.57;;;22.80;99.90;;;;;;4869786;29;20088;-93
2022/09/06 21:49:09;;;;;;;25.05;15.98;;;22.70;99.90;;;;;;4870279;29;20024;-93
2022/09/06 21:51:37;;;;;;;27.35;17.05;;;22.70;99.90;;;;;;4869240;29;20040;-93
2022/09/06 21:54:04;;;;;;;25.33;18.00;;;22.60;99.90;;;;;;4866133;29;20052;-92
2022/09/06 21:56:37;;;;;;;27.85;18.77;;;22.50;99.90;;;;;;4866506;29;20117;-93
2022/09/06 21:59:04;;;;;;;29.35;20.10;;;22.40;99.90;;;;;;4866896;29;20463;-93
2022/09/06 22:01:33;;;;;;;31.13;20.77;;;22.40;99.90;;;;;;4865767;29;20041;-93
2022/09/06 22:04:01;;;;;;;26.92;20.45;;;22.40;99.90;;;;;;4881566;29;20084;-93
2022/09/06 22:06:30;;;;;;;28.80;20.70;;;22.30;99.90;;;;;;4866532;29;20582;-93
2022/09/06 22:09:02;;;;;;;31.38;21.15;;;22.20;99.90;;;;;;4882160;29;20040;-93
2022/09/06 22:11:32;;;;;;;30.05;20.75;;;22.00;99.90;;;;;;4866149;29;20402;-92
2022/09/06 22:16:46;;;;;;;34.70;21.55;;;21.90;99.90;;;;;;5310212;23;20052;-94
2022/09/06 22:20:12;;;;;;;;;;;;;;;;;;;;;
2022/09/06 22:23:55;;;;;;;;;;;;;;;;;;;;;
2022/09/06 22:42:52;;;;;;;30.20;21.65;;;21.50;99.90;;;;;;5310641;23;20057;-92
2022/09/06 22:45:25;;;;;;;27.27;19.77;;;21.60;99.90;;;;;;4872695;29;20080;-93
2022/09/06 22:47:58;;;;;;;27.83;19.20;;;21.60;99.90;;;;;;4890674;29;20087;-94
2022/09/06 22:56:11;;;;;;;;;;;;;;;;;;;;;
